ENBN

Brønnøysund Airport

Brønnøy, Norway
METAR ENBN 181050Z 26008KT 9999 FEW017 SCT046 13/10 Q1003
Observed Flight Rules
Jun-18 @ 10:50 UTC (37 minutes ago) Visual Flight Rules
Wind Visibility Clouds
260° at 8 knots 10,000+ meters
  • Few at 1,700' AGL
  • Scattered at 4,600' AGL
Temperatures Readings
Current 13°C / 55°F
Dewpoint 10°C / 50°F
Humidity 82%
Altimeter 29.62" Hg
Pressure 1003 hPa
Elevation 9
METAR ENBN 181050Z 26008KT 9999 FEW017 SCT046 13/10 Q1003
Observed Flight Rules
Jun-18 @ 10:50 UTC
(37 minutes ago)
VFR
Wind Visibility
260° at 8 knots 10,000+ meters
Clouds
  • Few at 1,700' AGL
  • Scattered at 4,600' AGL
Temperature Dewpoint
13°C / 55°F 10°C / 50°F
Humidity Altimeter Pressure
82% 29.62" Hg 1003 hPa